x

Long Island - 30 Nm South Of Islip, Ny (44025) Wave Buoy

7:50am - Mon 20th Feb 2017 All times are EST. -5 hours from GMT.

  • Sig Wave height 2.0ft
  • Swell Direction
  • Peak Period 8s
  • Average Period 4s
  • Wind
    13mph, 16mph gusts
  • Sea Temp 40°f
  • Air Temp 43°f
  • Sea Pressure 1020mb
  • Long Island - 30 Nm South Of Islip, Ny
  • Long Island - 30 Nm South Of Islip, Ny

More Historic Weather Station data

Upgrade to MSW Pro to gain access to the past 30 days of data for over 8000 Wavebouys and Weather Stations around the globe.

Join Pro

Comparision Forecast

View Surf forecast
   
Mon 02/20 7:50am 2ft 8s 4s 13 16 mph 1020mb 40f 43f
6:50am 2ft 7s 4s 13 16 mph 1019.2mb 40f 43f
5:50am 2ft 7s 5s 13
mph
1017.9mb 40f 44f
4:50am 2ft 7s 6s 11
mph
1017.3mb 40f 44f
3:50am 2ft 7s 5s 9
mph
1016.4mb 40f 44f
2:50am 2.5ft 7s 5s 9
mph
1015.8mb 40f 45f
1:50am 2.5ft 7s 5s 11 13 mph 1015.3mb 40f 46f
12:50am 2.5ft 7s 6s 16 18 mph 1014.9mb 40f 48f
Sun 02/19 11:50pm 2.5ft 7s 6s 7 9 mph 1014.4mb 40f 45f
10:50pm 2.5ft 8s 6s 9 11 mph 1013.9mb 40f 47f
9:50pm 2.5ft 7s 6s 9
mph
1013.6mb 41f 47f
8:50pm 2.5ft 7s 6s 7 9 mph 1012.9mb 41f 48f
7:50pm 2.5ft 7s 6s 7 9 mph 1012.3mb 41f 49f
6:50pm 3.5ft 8s 6s 11 13 mph 1011.8mb 41f 50f
5:50pm 3.5ft 8s 6s 11
mph
1010.9mb 41f 47f
4:50pm 3.5ft 7s 6s 9 11 mph 1010.4mb 40f 46f
3:50pm 3ft 7s 6s 11
mph
1009.6mb 40f 47f
2:50pm 2.5ft 7s 5s 9
mph
1009mb 40f 47f
1:50pm 2.5ft 6s 5s 11
mph
1008.8mb 40f 48f
12:50pm 2.5ft 6s 5s 11
mph
1009.2mb 40f 47f
11:50am 2.5ft 6s 5s 11 13 mph 1009.5mb 40f 46f
10:50am 2.5ft 5s 5s 11 13 mph 1009.6mb 40f 47f
9:50am 2.5ft 5s 5s 11 13 mph 1009.7mb 40f 45f
8:50am 2.5ft 5s 5s 9
mph
1009.5mb 40f 45f
7:50am 2.5ft 5s 4s 9
mph
1008.8mb 40f 44f
6:50am 2.5ft 6s 4s 4 7 mph 1007.5mb 40f 44f
5:50am 3ft 5s 4s 13
mph
1007mb 40f 46f
4:50am 3ft 5s 4s 11 13 mph 1005.8mb 40f 48f
3:50am 3.5ft 6s 4s 13 16 mph 1006.1mb 40f 47f
2:50am 3.5ft 5s 4s 18 20 mph 1005.3mb 40f 48f
1:50am 3.5ft 5s 4s 16 18 mph 1005mb 40f 47f
12:50am 3.5ft 5s 4s 18 20 mph 1004.7mb 40f 46f
Sat 02/18 11:50pm 3.5ft 5s 4s 16 18 mph 1004.7mb 40f 46f
10:50pm 3.5ft 5s 4s 13 16 mph 1004.8mb 40f 45f
9:50pm 3.5ft 5s 4s 16 18 mph 1004.9mb 40f 45f
8:50pm 3.5ft 5s 4s 18 20 mph 1005.1mb 40f 45f
7:50pm 3.5ft 5s 4s 20 22 mph 1005mb 40f 46f
6:50pm 3.5ft 5s 4s 18 20 mph 1005.6mb 40f 46f
5:50pm 3ft 4s 4s 18 20 mph 1005.3mb 40f 46f
4:50pm 2.5ft 4s 4s 20 22 mph 1005mb 41f 46f
3:50pm 2.5ft 4s 4s 18 20 mph 1005.4mb 41f 44f
2:50pm 2.5ft 4s 4s 16 20 mph 1005.7mb 41f 44f
1:50pm 2.5ft 4s 4s 16 18 mph 1006.3mb 41f 44f
12:50pm 2.5ft 4s 4s 13 18 mph 1007.2mb 41f 44f
11:50am 2ft 3s 4s 13 16 mph 1009.1mb 41f 44f
10:50am 1.3ft 9s 4s 13 16 mph 1010.7mb 41f 43f
9:50am 1.3ft 3s 4s 13 16 mph 1011.5mb 41f 42f
8:50am 1.3ft 10s 4s 9
mph
1011.5mb 41f 42f
7:50am 1.3ft 11s 4s 9 11 mph 1011.5mb 41f 41f
6:50am 1.3ft 9s 4s 11 13 mph 1011.7mb 41f 40f
5:50am 1.6ft 4s 4s 9
mph
1011.9mb 41f 41f
4:50am 2ft 4s 4s 7
mph
1012.1mb 41f 40f
3:50am 2ft 5s 4s 7 9 mph 1012.2mb 41f 40f
2:50am 2.5ft 4s 4s 7 9 mph 1012.7mb 41f 40f
1:50am 2.5ft 5s 4s 11 13 mph 1012.3mb 41f 40f
12:50am 2.5ft 4s 4s 11 13 mph 1012.3mb 41f 40f
Fri 02/17 11:50pm 2ft 4s 4s 11 13 mph 1012.6mb 41f 40f
10:50pm 2ft 4s 4s 11 13 mph 1012.6mb 41f 40f
9:50pm 1.6ft 4s 4s 11 13 mph 1012.4mb 41f 41f
8:50pm 2ft 4s 4s 13 16 mph 1011.8mb 41f 41f
7:50pm 2.5ft 4s 4s 11 16 mph 1011.6mb 41f 41f
6:50pm 2.5ft 4s 4s 13 18 mph 1011mb 41f 41f
5:50pm 2.5ft 4s 4s 16 18 mph 1010.3mb 42f 40f
4:50pm 3ft 4s 4s 18 20 mph 1009.3mb 42f 40f
3:50pm 3.5ft 5s 4s 22 25 mph 1009.1mb 42f 38f
2:50pm 3.5ft 5s 4s 22 27 mph 1008.7mb 42f 37f
1:50pm 4ft 5s 4s 20 25 mph 1009mb 42f 35f
12:50pm 4ft 5s 4s 20 25 mph 1009.7mb 42f 34f
11:50am 4.5ft 5s 4s 20 27 mph 1010mb 42f 33f
10:50am 4.5ft 5s 4s 22 27 mph 1010.7mb 42f 31f
9:50am 5ft 6s 5s 22 27 mph 1010.6mb 42f 31f
8:50am 5.5ft 6s 5s 25 29 mph 1010.5mb 42f 31f
7:50am 5ft 6s 5s 27 31 mph 1010.2mb 42f 31f
6:50am 5.5ft 6s 5s 27 31 mph 1009.6mb 42f 31f
5:50am 5ft 6s 5s 25 31 mph 1009.5mb 42f 31f
4:50am 5ft 6s 4s 27 34 mph 1009.1mb 42f 31f
3:50am 5.5ft 6s 5s 27 34 mph 1008.6mb 42f 31f
2:50am 5.5ft 6s 4s 27 34 mph 1008.6mb 42f 32f
1:50am 5ft 6s 5s 29 34 mph 1008.2mb 42f 31f
12:50am 6ft 6s 5s 29 36 mph 1007.9mb 42f 31f
Thu 02/16 11:50pm 6ft 6s 5s 29 34 mph 1007.5mb 42f 31f
10:50pm 6ft 6s 5s 29 38 mph 1006.9mb 42f 32f
9:50pm 6.5ft 6s 5s 27 36 mph 1006.5mb 42f 33f
8:50pm 7ft 6s 5s 31 36 mph 1005.6mb 42f 34f
7:50pm 7ft 6s 5s 31 38 mph 1004.9mb 42f 35f
6:50pm 6ft 6s 5s 31 36 mph 1003.9mb 42f 35f
5:50pm 6ft 6s 5s 31 40 mph 1002.5mb 43f 36f
4:50pm 6ft 5s 5s 31 38 mph 1001.5mb 43f 36f
3:50pm 6ft 6s 5s 31 38 mph 1001mb 43f 36f
2:50pm 5.5ft 5s 5s 29 36 mph 1000.6mb 43f 36f